createdAt,value
2023-02-17T00:00:01.066Z,7.93
2023-02-17T00:02:49.790Z,8.27
2023-02-17T00:05:40.414Z,7.87
2023-02-17T00:08:29.043Z,7.30
2023-02-17T00:11:18.216Z,7.00
2023-02-17T00:14:06.543Z,8.27
2023-02-17T00:16:54.734Z,8.50
2023-02-17T00:19:43.273Z,8.90
2023-02-17T00:22:32.911Z,7.10
2023-02-17T00:25:21.128Z,6.83
2023-02-17T00:28:09.378Z,7.20
2023-02-17T00:30:57.597Z,6.90
2023-02-17T00:33:46.051Z,6.87
2023-02-17T00:36:34.553Z,6.70
2023-02-17T00:39:24.229Z,7.87
2023-02-17T00:42:12.428Z,7.70
2023-02-17T00:45:00.803Z,7.30
2023-02-17T00:47:49.129Z,7.10
2023-02-17T00:50:37.360Z,6.80
2023-02-17T00:53:25.711Z,7.10
2023-02-17T00:56:16.004Z,7.70
2023-02-17T00:59:04.560Z,8.40
2023-02-17T01:01:53.038Z,7.00
2023-02-17T01:04:41.337Z,7.30
2023-02-17T01:07:29.622Z,8.60
2023-02-17T01:10:18.608Z,6.90
2023-02-17T01:13:09.297Z,7.40
2023-02-17T01:15:57.643Z,7.23
2023-02-17T01:18:45.880Z,6.53
2023-02-17T01:21:34.660Z,7.10
2023-02-17T01:24:22.891Z,7.03
2023-02-17T01:27:11.354Z,7.30
2023-02-17T01:30:01.015Z,8.07
2023-02-17T01:32:49.248Z,6.90
2023-02-17T01:35:37.431Z,7.13
2023-02-17T01:38:25.769Z,7.10
2023-02-17T01:41:14.936Z,6.60
2023-02-17T01:44:15.843Z,7.53
2023-02-17T01:47:05.406Z,7.10
2023-02-17T01:49:53.656Z,6.47
2023-02-17T01:52:42.902Z,6.70
2023-02-17T01:55:33.770Z,6.77
2023-02-17T01:58:24.680Z,7.28
2023-02-17T02:01:13.368Z,7.40
2023-02-17T02:04:05.800Z,7.23
2023-02-17T02:06:54.343Z,6.97
2023-02-17T02:09:48.842Z,6.90
2023-02-17T02:12:39.564Z,6.80
2023-02-17T02:15:33.127Z,6.63
2023-02-17T02:18:43.922Z,6.27
2023-02-17T02:22:16.604Z,6.57
2023-02-17T02:25:22.779Z,7.03
2023-02-17T02:28:22.472Z,6.97
2023-02-17T02:31:27.491Z,6.37
2023-02-17T02:34:22.016Z,7.03
2023-02-17T02:37:16.221Z,8.00
2023-02-17T02:40:10.029Z,7.30
2023-02-17T02:42:59.526Z,6.83
2023-02-17T02:45:48.410Z,7.23
2023-02-17T02:48:37.835Z,6.50
2023-02-17T02:51:38.231Z,6.17
2023-02-17T02:54:42.566Z,6.93
2023-02-17T02:57:42.933Z,6.10
2023-02-17T03:00:36.502Z,7.60
2023-02-17T03:03:29.908Z,8.00
2023-02-17T03:06:26.212Z,6.53
2023-02-17T03:09:22.100Z,8.77
2023-02-17T03:12:10.626Z,6.97
2023-02-17T03:15:04.038Z,7.17
2023-02-17T03:17:52.475Z,7.77
2023-02-17T03:20:48.012Z,7.83
2023-02-17T03:23:36.284Z,7.30
2023-02-17T03:26:25.917Z,7.70
2023-02-17T03:29:14.302Z,6.40
2023-02-17T03:32:02.827Z,6.63
2023-02-17T03:34:51.113Z,7.60
2023-02-17T03:37:39.266Z,6.40
2023-02-17T03:40:27.695Z,7.03
2023-02-17T03:43:18.218Z,7.53
2023-02-17T03:46:06.736Z,7.43
2023-02-17T03:48:55.250Z,6.50
2023-02-17T03:51:43.492Z,6.90
2023-02-17T03:54:31.811Z,6.73
2023-02-17T03:57:19.985Z,6.80
2023-02-17T04:00:11.030Z,6.93
2023-02-17T04:02:59.260Z,6.67
2023-02-17T04:05:47.495Z,6.90
2023-02-17T04:08:36.101Z,7.53
2023-02-17T04:11:24.364Z,7.90
2023-02-17T04:14:12.736Z,6.90
2023-02-17T04:17:02.287Z,8.33
2023-02-17T04:19:50.606Z,9.00
2023-02-17T04:22:38.952Z,7.30
2023-02-17T04:25:27.240Z,7.57
2023-02-17T04:28:17.047Z,8.07
2023-02-17T04:31:05.728Z,7.10
2023-02-17T04:33:55.905Z,8.00
2023-02-17T04:36:44.406Z,7.30
2023-02-17T04:39:32.796Z,8.10
2023-02-17T04:42:20.984Z,7.13
2023-02-17T04:45:10.483Z,6.73
2023-02-17T04:47:58.774Z,6.80
2023-02-17T04:50:48.514Z,6.27
2023-02-17T04:53:36.741Z,6.97
2023-02-17T04:56:25.119Z,6.87
2023-02-17T04:59:13.368Z,6.93
2023-02-17T05:02:02.583Z,6.03
2023-02-17T05:04:52.180Z,6.00
2023-02-17T05:07:42.476Z,6.50
2023-02-17T05:10:30.984Z,6.33
2023-02-17T05:13:19.291Z,6.03
2023-02-17T05:16:08.037Z,6.07
2023-02-17T05:18:56.693Z,6.30
2023-02-17T05:21:44.915Z,5.30
2023-02-17T05:24:34.720Z,6.67
2023-02-17T05:27:23.347Z,6.17
2023-02-17T05:30:12.380Z,6.53
2023-02-17T05:33:00.902Z,7.87
2023-02-17T05:35:49.280Z,7.28
2023-02-17T05:38:40.025Z,7.50
2023-02-17T05:41:29.860Z,7.10
2023-02-17T05:44:19.497Z,6.73
2023-02-17T05:47:07.748Z,6.73
2023-02-17T05:49:56.047Z,7.70
2023-02-17T05:52:44.400Z,6.53
2023-02-17T05:55:32.845Z,6.17
2023-02-17T05:58:22.621Z,6.90
2023-02-17T06:01:11.101Z,7.87
2023-02-17T06:03:59.295Z,7.13
2023-02-17T06:06:47.464Z,6.57
2023-02-17T06:09:35.789Z,6.50
2023-02-17T06:12:24.059Z,7.67
2023-02-17T06:15:13.969Z,7.47
2023-02-17T06:18:02.495Z,7.03
2023-02-17T06:20:50.880Z,7.00
2023-02-17T06:23:39.096Z,6.43
2023-02-17T06:26:27.514Z,7.20
2023-02-17T06:29:15.830Z,8.23
2023-02-17T06:32:05.693Z,7.00
2023-02-17T06:34:53.924Z,6.77
2023-02-17T06:37:42.215Z,6.40
2023-02-17T06:40:30.589Z,7.53
2023-02-17T06:43:18.749Z,5.77
2023-02-17T06:46:07.443Z,7.35
2023-02-17T06:48:57.280Z,6.90
2023-02-17T06:51:45.498Z,6.63
2023-02-17T06:54:33.651Z,6.33
2023-02-17T06:57:22.905Z,6.27
2023-02-17T07:00:11.870Z,6.67
2023-02-17T07:03:00.280Z,6.37
2023-02-17T07:05:50.051Z,6.90
2023-02-17T07:08:38.421Z,5.50
2023-02-17T07:11:27.344Z,5.43
2023-02-17T07:14:15.627Z,5.57
2023-02-17T07:17:03.917Z,5.30
2023-02-17T07:19:53.305Z,5.75
2023-02-17T07:22:42.971Z,6.17
2023-02-17T07:25:31.344Z,5.73
2023-02-17T07:28:19.724Z,5.43
2023-02-17T07:31:08.977Z,5.73
2023-02-17T07:33:57.233Z,6.37
2023-02-17T07:36:45.865Z,5.40
2023-02-17T07:39:36.568Z,5.93
2023-02-17T07:42:24.813Z,6.10
2023-02-17T07:45:13.128Z,6.73
2023-02-17T07:48:01.324Z,5.23
2023-02-17T07:50:49.522Z,5.47
2023-02-17T07:53:38.135Z,5.43
2023-02-17T07:56:30.120Z,5.77
2023-02-17T07:59:18.476Z,6.57
2023-02-17T08:02:06.899Z,5.97
2023-02-17T08:04:55.085Z,4.87
2023-02-17T08:07:43.478Z,4.90
2023-02-17T08:10:49.466Z,5.00
2023-02-17T08:13:39.206Z,5.13
2023-02-17T08:16:27.966Z,5.30
2023-02-17T08:19:16.169Z,5.17
2023-02-17T08:22:04.795Z,4.50
2023-02-17T08:24:53.220Z,5.70
2023-02-17T08:27:41.585Z,5.23
2023-02-17T08:30:31.281Z,5.50
2023-02-17T08:33:20.176Z,4.90
2023-02-17T08:36:09.303Z,4.70
2023-02-17T08:38:58.137Z,5.27
2023-02-17T08:41:46.790Z,4.50
2023-02-17T08:44:37.300Z,4.80
2023-02-17T08:47:27.067Z,5.70
2023-02-17T08:50:17.287Z,5.33
2023-02-17T08:53:05.564Z,4.60
2023-02-17T08:55:54.075Z,5.00
2023-02-17T08:58:42.561Z,4.83
2023-02-17T09:01:32.203Z,4.70
2023-02-17T09:04:22.055Z,4.60
2023-02-17T09:07:12.574Z,4.20
2023-02-17T09:10:01.824Z,4.70
2023-02-17T09:12:51.977Z,4.70
2023-02-17T09:15:40.314Z,4.13
2023-02-17T09:18:28.906Z,4.17
2023-02-17T09:21:19.361Z,4.30
2023-02-17T09:24:08.236Z,4.30
2023-02-17T09:26:56.707Z,4.50
2023-02-17T09:29:45.309Z,5.17
2023-02-17T09:32:34.483Z,4.60
2023-02-17T09:35:23.178Z,4.70
2023-02-17T09:38:13.195Z,4.53
2023-02-17T09:41:07.720Z,4.50
2023-02-17T09:43:56.712Z,3.90
2023-02-17T09:47:00.997Z,3.70
2023-02-17T09:49:54.915Z,3.90
2023-02-17T09:52:49.256Z,4.60
2023-02-17T09:55:43.766Z,4.60
2023-02-17T09:58:35.636Z,4.90
2023-02-17T10:01:32.653Z,4.77
2023-02-17T10:04:25.690Z,4.00
2023-02-17T10:07:19.117Z,4.27
2023-02-17T10:10:11.486Z,4.70
2023-02-17T10:13:03.392Z,3.70
2023-02-17T10:15:54.377Z,4.77
2023-02-17T10:18:46.550Z,4.50
2023-02-17T10:21:40.937Z,4.70
2023-02-17T10:24:29.241Z,4.20
2023-02-17T10:27:31.222Z,5.23
2023-02-17T10:30:38.921Z,4.07
2023-02-17T10:33:32.469Z,4.67
2023-02-17T10:36:26.482Z,4.80
2023-02-17T10:39:16.997Z,4.33
2023-02-17T10:42:06.237Z,4.73
2023-02-17T10:44:59.489Z,4.50
2023-02-17T10:47:49.157Z,3.87
2023-02-17T10:50:39.158Z,4.60
2023-02-17T10:53:31.323Z,4.90
2023-02-17T10:56:22.916Z,4.57
2023-02-17T10:59:20.295Z,5.22
2023-02-17T11:02:21.300Z,4.70
2023-02-17T11:05:23.013Z,4.00
2023-02-17T11:08:28.883Z,4.57
2023-02-17T11:11:20.692Z,4.73
2023-02-17T11:14:19.096Z,4.73
2023-02-17T11:17:17.711Z,4.70
2023-02-17T11:20:29.542Z,5.20
2023-02-17T11:23:25.845Z,5.00
2023-02-17T11:26:23.065Z,4.20
2023-02-17T11:29:16.508Z,5.60
2023-02-17T11:32:07.384Z,4.57
2023-02-17T11:35:00.990Z,4.57
2023-02-17T11:37:50.709Z,4.90
2023-02-17T11:40:39.676Z,4.50
2023-02-17T11:43:29.664Z,4.57
2023-02-17T11:46:28.745Z,4.73
2023-02-17T11:49:50.348Z,4.63
2023-02-17T11:52:51.783Z,4.40
2023-02-17T11:55:51.743Z,4.57
2023-02-17T11:59:04.060Z,4.57
2023-02-17T12:02:09.557Z,5.10
2023-02-17T12:05:14.587Z,4.30
2023-02-17T12:08:13.004Z,4.13
2023-02-17T12:11:13.046Z,4.00
2023-02-17T12:14:12.585Z,3.90
2023-02-17T12:17:07.015Z,4.60
2023-02-17T12:20:05.190Z,4.17
2023-02-17T12:23:06.058Z,3.70
2023-02-17T12:26:00.884Z,7.30
2023-02-17T12:29:11.219Z,3.90
2023-02-17T12:32:14.835Z,3.10
2023-02-17T12:35:14.759Z,3.17
2023-02-17T12:38:09.990Z,3.67
2023-02-17T12:41:07.900Z,3.97
2023-02-17T12:44:00.981Z,3.83
2023-02-17T12:46:54.736Z,5.60
2023-02-17T12:49:49.044Z,5.40
2023-02-17T12:52:42.151Z,3.60
2023-02-17T12:55:38.008Z,4.30
2023-02-17T12:58:28.702Z,3.53
2023-02-17T13:01:21.804Z,3.67
2023-02-17T13:04:18.402Z,3.20
2023-02-17T13:07:33.882Z,3.60
2023-02-17T13:10:35.259Z,3.83
2023-02-17T13:13:29.009Z,2.90
2023-02-17T13:16:17.421Z,3.50
2023-02-17T13:19:09.377Z,3.33
2023-02-17T13:22:02.352Z,3.20
2023-02-17T13:24:54.826Z,3.60
2023-02-17T13:27:43.060Z,3.17
2023-02-17T13:30:40.612Z,2.80
2023-02-17T13:33:31.499Z,2.70
2023-02-17T13:36:23.388Z,2.73
2023-02-17T13:39:35.926Z,2.93
2023-02-17T13:42:39.578Z,4.87
2023-02-17T13:45:30.124Z,2.47
2023-02-17T13:48:26.183Z,2.70
2023-02-17T13:51:27.311Z,3.30
2023-02-17T13:54:21.117Z,2.30
2023-02-17T13:57:25.228Z,2.50
2023-02-17T14:00:23.174Z,2.60
2023-02-17T14:03:23.918Z,2.60
2023-02-17T14:06:19.922Z,2.50
2023-02-17T14:09:14.864Z,2.70
2023-02-17T14:12:05.934Z,2.83
2023-02-17T14:14:55.687Z,2.33
2023-02-17T14:17:44.064Z,2.30
2023-02-17T14:20:34.794Z,2.30
2023-02-17T14:23:23.190Z,2.20
2023-02-17T14:26:13.510Z,2.10
2023-02-17T14:29:03.497Z,2.50
2023-02-17T14:31:54.572Z,2.40
2023-02-17T14:34:42.895Z,2.50
2023-02-17T14:37:33.703Z,2.30
2023-02-17T14:40:24.362Z,2.30
2023-02-17T14:43:12.533Z,2.03
2023-02-17T14:46:00.828Z,2.10
2023-02-17T14:48:51.679Z,2.10
2023-02-17T14:51:40.864Z,2.37
2023-02-17T14:54:30.983Z,1.80
2023-02-17T14:57:27.430Z,2.13
2023-02-17T15:00:17.378Z,2.20
2023-02-17T15:03:05.700Z,2.10
2023-02-17T15:05:56.358Z,2.40
2023-02-17T15:08:46.052Z,2.07
2023-02-17T15:11:37.231Z,2.50
2023-02-17T15:14:25.885Z,2.47
2023-02-17T15:17:14.150Z,4.90
2023-02-17T15:20:03.869Z,2.70
2023-02-17T15:22:54.537Z,2.40
2023-02-17T15:25:46.429Z,2.60
2023-02-17T15:28:34.814Z,2.60
2023-02-17T15:31:23.266Z,2.40
2023-02-17T15:34:15.266Z,2.20
2023-02-17T15:37:03.915Z,2.47
2023-02-17T15:39:53.991Z,2.60
2023-02-17T15:42:43.088Z,2.40
2023-02-17T15:45:31.774Z,2.30
2023-02-17T15:48:25.207Z,3.03
2023-02-17T15:51:15.081Z,2.67
2023-02-17T15:54:03.621Z,2.90
2023-02-17T15:56:54.546Z,2.60
2023-02-17T15:59:43.075Z,2.73
2023-02-17T16:02:31.932Z,2.30
2023-02-17T16:05:22.055Z,2.40
2023-02-17T16:08:10.364Z,2.70
2023-02-17T16:10:58.611Z,2.53
2023-02-17T16:13:49.279Z,2.70
2023-02-17T16:16:38.180Z,2.43
2023-02-17T16:19:26.622Z,2.93
2023-02-17T16:22:14.937Z,2.83
2023-02-17T16:25:03.252Z,2.50
2023-02-17T16:27:54.358Z,2.70
2023-02-17T16:30:46.245Z,2.80
2023-02-17T16:33:34.687Z,2.50
2023-02-17T16:36:22.972Z,2.47
2023-02-17T16:39:14.775Z,2.67
2023-02-17T16:42:03.027Z,2.70
2023-02-17T16:44:51.327Z,2.50
2023-02-17T16:47:40.948Z,2.70
2023-02-17T16:50:32.343Z,2.83
2023-02-17T16:53:21.324Z,2.87
2023-02-17T16:56:17.277Z,2.40
2023-02-17T16:59:05.924Z,3.10
2023-02-17T17:01:54.770Z,2.30
2023-02-17T17:04:44.467Z,2.70
2023-02-17T17:07:33.025Z,2.65
2023-02-17T17:10:24.135Z,2.40
2023-02-17T17:13:13.220Z,2.27
2023-02-17T17:16:01.460Z,2.13
2023-02-17T17:18:50.251Z,2.60
2023-02-17T17:21:39.803Z,2.47
2023-02-17T17:24:28.388Z,2.20
2023-02-17T17:27:16.702Z,2.07
2023-02-17T17:30:07.001Z,2.08
2023-02-17T17:32:55.600Z,2.10
2023-02-17T17:35:43.979Z,2.07
2023-02-17T17:38:33.763Z,3.13
2023-02-17T17:41:22.909Z,2.03
2023-02-17T17:44:11.354Z,1.80
2023-02-17T17:46:59.626Z,1.90
2023-02-17T17:49:48.012Z,2.00
2023-02-17T17:52:36.491Z,3.03
2023-02-17T17:55:26.178Z,1.97
2023-02-17T17:58:16.413Z,1.73
2023-02-17T18:01:04.740Z,1.67
2023-02-17T18:03:54.662Z,1.60
2023-02-17T18:06:45.398Z,2.05
2023-02-17T18:09:37.078Z,1.83
2023-02-17T18:12:26.980Z,1.87
2023-02-17T18:15:16.766Z,1.70
2023-02-17T18:18:05.339Z,1.50
2023-02-17T18:20:53.666Z,1.97
2023-02-17T18:23:42.140Z,2.00
2023-02-17T18:26:30.611Z,1.70
2023-02-17T18:29:20.959Z,2.13
2023-02-17T18:32:09.413Z,1.97
2023-02-17T18:34:58.574Z,1.90
2023-02-17T18:37:47.328Z,1.67
2023-02-17T18:40:39.054Z,2.30
2023-02-17T18:43:28.587Z,2.47
2023-02-17T18:46:18.959Z,3.40
2023-02-17T18:49:08.118Z,4.07
2023-02-17T18:51:57.538Z,2.10
2023-02-17T18:54:47.271Z,2.50
2023-02-17T18:57:37.918Z,4.47
2023-02-17T19:00:27.734Z,3.00
2023-02-17T19:03:17.509Z,3.07
2023-02-17T19:06:10.887Z,3.67
2023-02-17T19:08:59.724Z,2.27
2023-02-17T19:11:48.083Z,4.50
2023-02-17T19:14:37.306Z,3.80
2023-02-17T19:17:26.436Z,2.23
2023-02-17T19:20:17.277Z,3.63
2023-02-17T19:23:05.607Z,2.33
2023-02-17T19:25:56.919Z,1.90
2023-02-17T19:28:46.381Z,2.75
2023-02-17T19:31:34.832Z,2.30
2023-02-17T19:34:23.195Z,3.17
2023-02-17T19:37:13.054Z,3.73
2023-02-17T19:40:01.378Z,1.70
2023-02-17T19:42:49.548Z,1.60
2023-02-17T19:45:41.004Z,2.60
2023-02-17T19:48:30.684Z,1.77
2023-02-17T19:51:19.120Z,3.23
2023-02-17T19:54:08.736Z,2.07
2023-02-17T19:56:57.007Z,1.77
2023-02-17T19:59:45.749Z,2.03
2023-02-17T20:02:34.357Z,3.20
2023-02-17T20:05:22.937Z,1.60
2023-02-17T20:08:11.265Z,1.70
2023-02-17T20:11:00.972Z,1.70
2023-02-17T20:13:49.371Z,1.40
2023-02-17T20:16:37.853Z,2.63
2023-02-17T20:19:26.266Z,2.13
2023-02-17T20:22:14.618Z,1.77
2023-02-17T20:25:03.200Z,2.53
2023-02-17T20:27:54.506Z,1.67
2023-02-17T20:30:43.612Z,1.83
2023-02-17T20:33:32.039Z,1.30
2023-02-17T20:36:22.369Z,1.90
2023-02-17T20:39:10.694Z,2.00
2023-02-17T20:41:59.635Z,2.07
2023-02-17T20:44:51.069Z,7.93
2023-02-17T20:47:39.381Z,1.70
2023-02-17T20:50:27.910Z,1.60
2023-02-17T20:53:16.053Z,2.20
2023-02-17T20:56:04.447Z,4.07
2023-02-17T20:58:53.772Z,1.80
2023-02-17T21:01:44.643Z,1.30
2023-02-17T21:04:33.279Z,1.60
2023-02-17T21:07:22.523Z,1.73
2023-02-17T21:10:17.666Z,1.37
2023-02-17T21:13:06.017Z,1.57
2023-02-17T21:15:54.699Z,2.00
2023-02-17T21:18:46.852Z,2.03
2023-02-17T21:21:35.845Z,1.17
2023-02-17T21:24:25.549Z,1.20
2023-02-17T21:27:13.847Z,2.07
2023-02-17T21:30:02.397Z,1.30
2023-02-17T21:32:51.088Z,2.03
2023-02-17T21:35:41.556Z,1.50
2023-02-17T21:38:29.842Z,1.37
2023-02-17T21:41:21.351Z,1.83
2023-02-17T21:44:29.481Z,1.37
2023-02-17T21:47:18.257Z,1.85
2023-02-17T21:50:08.237Z,1.93
2023-02-17T21:52:58.048Z,1.33
2023-02-17T21:55:47.990Z,2.50
2023-02-17T21:58:36.888Z,1.43
2023-02-17T22:01:27.960Z,1.37
2023-02-17T22:04:16.520Z,1.80
2023-02-17T22:07:05.915Z,1.43
2023-02-17T22:09:56.197Z,1.33
2023-02-17T22:12:45.483Z,1.43
2023-02-17T22:15:34.281Z,1.30
2023-02-17T22:18:22.914Z,1.10
2023-02-17T22:21:13.547Z,2.30
2023-02-17T22:24:03.266Z,1.87
2023-02-17T22:26:53.501Z,2.90
2023-02-17T22:29:41.961Z,1.40
2023-02-17T22:32:30.869Z,2.10
2023-02-17T22:35:21.319Z,1.60
2023-02-17T22:38:11.406Z,1.30
2023-02-17T22:40:59.993Z,1.53
2023-02-17T22:43:50.899Z,1.00
2023-02-17T22:46:39.418Z,2.00
2023-02-17T22:49:28.150Z,1.37
2023-02-17T22:52:16.660Z,1.57
2023-02-17T22:55:05.314Z,2.60
2023-02-17T22:57:53.588Z,1.67
2023-02-17T23:00:43.107Z,2.00
2023-02-17T23:03:31.345Z,1.10
2023-02-17T23:06:21.853Z,2.00
2023-02-17T23:09:13.181Z,2.27
2023-02-17T23:12:01.545Z,1.77
2023-02-17T23:14:49.836Z,1.37
2023-02-17T23:17:53.303Z,0.80
2023-02-17T23:20:44.359Z,1.90
2023-02-17T23:23:32.616Z,1.85
2023-02-17T23:26:20.889Z,3.00
2023-02-17T23:29:09.644Z,1.30
2023-02-17T23:31:58.184Z,1.50
2023-02-17T23:34:48.090Z,1.40
2023-02-17T23:37:36.248Z,1.80
2023-02-17T23:40:24.457Z,1.10
2023-02-17T23:43:12.625Z,2.23
2023-02-17T23:46:01.216Z,1.27
2023-02-17T23:48:49.649Z,1.30
2023-02-17T23:51:39.199Z,2.43
2023-02-17T23:54:27.662Z,1.10
2023-02-17T23:57:16.030Z,1.43
